createdAt,value
2018-07-13T00:00:58.286Z,19.86
2018-07-13T00:03:27.219Z,19.76
2018-07-13T00:05:56.354Z,19.79
2018-07-13T00:08:25.288Z,19.94
2018-07-13T00:10:54.062Z,19.89
2018-07-13T00:13:23.022Z,19.97
2018-07-13T00:15:58.947Z,20.10
2018-07-13T00:18:28.187Z,19.92
2018-07-13T00:20:57.653Z,19.88
2018-07-13T00:23:26.451Z,19.82
2018-07-13T00:25:55.707Z,19.90
2018-07-13T00:28:25.009Z,19.90
2018-07-13T00:30:53.962Z,19.79
2018-07-13T00:33:23.061Z,19.78
2018-07-13T00:35:51.834Z,19.75
2018-07-13T00:38:20.627Z,19.73
2018-07-13T00:40:49.707Z,19.70
2018-07-13T00:43:18.529Z,19.68
2018-07-13T00:45:47.243Z,19.55
2018-07-13T00:48:16.252Z,19.55
2018-07-13T00:50:45.428Z,19.57
2018-07-13T00:53:14.471Z,19.52
2018-07-13T00:55:43.503Z,19.42
2018-07-13T00:58:12.761Z,19.49
2018-07-13T01:00:41.873Z,19.45
2018-07-13T01:03:11.410Z,19.42
2018-07-13T01:05:40.683Z,19.35
2018-07-13T01:08:09.432Z,19.37
2018-07-13T01:10:38.472Z,19.32
2018-07-13T01:13:07.639Z,19.25
2018-07-13T01:15:42.690Z,19.27
2018-07-13T01:18:11.434Z,18.86
2018-07-13T01:20:41.342Z,18.80
2018-07-13T01:23:10.414Z,18.94
2018-07-13T01:25:39.525Z,18.96
2018-07-13T01:28:08.406Z,19.09
2018-07-13T01:30:38.434Z,19.04
2018-07-13T01:33:07.221Z,19.00
2018-07-13T01:35:36.193Z,19.01
2018-07-13T01:38:05.416Z,19.09
2018-07-13T01:40:34.374Z,19.01
2018-07-13T01:43:03.582Z,18.99
2018-07-13T01:45:33.034Z,18.94
2018-07-13T01:48:02.003Z,18.86
2018-07-13T01:50:31.081Z,18.85
2018-07-13T01:53:00.113Z,18.83
2018-07-13T01:55:29.031Z,18.73
2018-07-13T01:57:58.062Z,18.77
2018-07-13T02:00:27.527Z,18.63
2018-07-13T02:02:56.441Z,18.67
2018-07-13T02:05:25.454Z,18.66
2018-07-13T02:07:54.878Z,18.66
2018-07-13T02:10:24.092Z,18.65
2018-07-13T02:12:53.383Z,18.57
2018-07-13T02:15:22.421Z,18.64
2018-07-13T02:17:51.811Z,18.50
2018-07-13T02:20:21.054Z,18.38
2018-07-13T02:22:50.058Z,18.28
2018-07-13T02:25:18.785Z,18.25
2018-07-13T02:27:47.944Z,18.22
2018-07-13T02:30:17.266Z,18.17
2018-07-13T02:32:46.231Z,18.24
2018-07-13T02:35:15.415Z,18.32
2018-07-13T02:37:45.118Z,18.33
2018-07-13T02:40:14.296Z,18.28
2018-07-13T02:42:43.634Z,18.29
2018-07-13T02:45:13.002Z,18.14
2018-07-13T02:47:42.177Z,18.07
2018-07-13T02:50:11.054Z,18.05
2018-07-13T02:52:40.294Z,18.04
2018-07-13T02:55:09.109Z,18.14
2018-07-13T02:57:38.099Z,18.11
2018-07-13T03:00:07.431Z,18.11
2018-07-13T03:02:36.866Z,18.14
2018-07-13T03:05:05.910Z,18.20
2018-07-13T03:07:34.974Z,18.14
2018-07-13T03:10:04.717Z,18.06
2018-07-13T03:12:33.814Z,18.08
2018-07-13T03:15:03.041Z,18.03
2018-07-13T03:17:32.036Z,18.04
2018-07-13T03:20:01.002Z,17.99
2018-07-13T03:22:30.078Z,18.02
2018-07-13T03:24:58.860Z,18.06
2018-07-13T03:27:27.777Z,18.21
2018-07-13T03:29:56.894Z,18.13
2018-07-13T03:32:26.198Z,18.12
2018-07-13T03:34:55.274Z,18.09
2018-07-13T03:37:24.709Z,18.13
2018-07-13T03:39:53.573Z,18.12
2018-07-13T03:42:22.502Z,18.11
2018-07-13T03:44:51.797Z,18.11
2018-07-13T03:47:20.543Z,18.07
2018-07-13T03:49:49.551Z,18.08
2018-07-13T03:52:18.657Z,18.21
2018-07-13T03:54:47.945Z,18.21
2018-07-13T03:57:17.342Z,18.15
2018-07-13T03:59:47.483Z,18.15
2018-07-13T04:02:16.246Z,18.21
2018-07-13T04:04:45.398Z,18.36
2018-07-13T04:07:14.571Z,18.13
2018-07-13T04:09:43.641Z,18.14
2018-07-13T04:12:12.927Z,18.36
2018-07-13T04:14:42.432Z,18.46
2018-07-13T04:17:11.284Z,18.45
2018-07-13T04:19:40.205Z,18.45
2018-07-13T04:22:09.045Z,18.68
2018-07-13T04:24:38.070Z,18.61
2018-07-13T04:27:07.100Z,18.54
2018-07-13T04:29:36.897Z,18.72
2018-07-13T04:32:05.921Z,18.61
2018-07-13T04:34:35.168Z,18.55
2018-07-13T04:37:04.849Z,18.65
2018-07-13T04:39:33.841Z,18.67
2018-07-13T04:42:02.806Z,18.70
2018-07-13T04:44:32.165Z,18.76
2018-07-13T04:47:01.543Z,18.85
2018-07-13T04:49:31.008Z,18.93
2018-07-13T04:52:00.367Z,18.97
2018-07-13T04:54:29.478Z,18.98
2018-07-13T04:57:00.218Z,19.13
2018-07-13T04:59:29.586Z,19.19
2018-07-13T05:02:01.666Z,19.28
2018-07-13T05:04:31.936Z,19.28
2018-07-13T05:07:03.652Z,19.30
2018-07-13T05:09:32.718Z,19.29
2018-07-13T05:12:02.786Z,19.43
2018-07-13T05:14:31.811Z,19.34
2018-07-13T05:17:01.010Z,19.49
2018-07-13T05:19:29.770Z,19.50
2018-07-13T05:21:58.857Z,19.39
2018-07-13T05:24:28.030Z,19.41
2018-07-13T05:26:57.006Z,19.48
2018-07-13T05:29:26.642Z,19.52
2018-07-13T05:31:56.258Z,19.61
2018-07-13T05:34:25.416Z,19.59
2018-07-13T05:36:54.566Z,19.71
2018-07-13T05:39:24.146Z,19.69
2018-07-13T05:41:53.215Z,19.83
2018-07-13T05:44:22.209Z,19.91
2018-07-13T05:46:51.945Z,19.99
2018-07-13T05:49:21.161Z,19.94
2018-07-13T05:51:50.177Z,19.96
2018-07-13T05:54:19.196Z,20.01
2018-07-13T05:56:48.397Z,20.31
2018-07-13T05:59:17.594Z,20.36
2018-07-13T06:01:47.374Z,20.38
2018-07-13T06:04:16.447Z,20.35
2018-07-13T06:06:45.388Z,20.39
2018-07-13T06:09:14.726Z,20.39
2018-07-13T06:11:44.314Z,20.51
2018-07-13T06:14:13.319Z,20.46
2018-07-13T06:16:42.382Z,20.60
2018-07-13T06:19:11.583Z,20.60
2018-07-13T06:21:40.811Z,20.88
2018-07-13T06:24:09.928Z,20.90
2018-07-13T06:26:38.890Z,21.06
2018-07-13T06:29:07.535Z,20.95
2018-07-13T06:31:36.939Z,21.06
2018-07-13T06:34:05.760Z,21.17
2018-07-13T06:36:34.674Z,21.18
2018-07-13T06:39:04.385Z,21.10
2018-07-13T06:41:33.422Z,21.30
2018-07-13T06:44:02.265Z,21.31
2018-07-13T06:46:31.762Z,21.34
2018-07-13T06:49:00.910Z,21.42
2018-07-13T06:51:30.061Z,21.48
2018-07-13T06:53:59.198Z,21.58
2018-07-13T06:56:28.077Z,21.58
2018-07-13T06:59:05.667Z,21.60
2018-07-13T07:01:35.098Z,21.59
2018-07-13T07:04:36.350Z,21.56
2018-07-13T07:07:13.551Z,21.72
2018-07-13T07:09:46.504Z,22.03
2018-07-13T07:13:21.415Z,22.21
2018-07-13T07:15:51.333Z,22.22
2018-07-13T07:18:20.843Z,22.36
2018-07-13T07:20:50.532Z,22.31
2018-07-13T07:23:20.143Z,22.29
2018-07-13T07:25:49.298Z,22.44
2018-07-13T07:28:18.834Z,22.37
2018-07-13T07:30:48.469Z,22.52
2018-07-13T07:33:17.306Z,22.14
2018-07-13T07:35:46.798Z,22.29
2018-07-13T07:38:16.036Z,22.46
2018-07-13T07:40:45.351Z,22.61
2018-07-13T07:43:14.504Z,22.67
2018-07-13T07:45:43.510Z,22.83
2018-07-13T07:48:13.202Z,22.76
2018-07-13T07:50:42.213Z,22.91
2018-07-13T07:53:11.297Z,23.14
2018-07-13T07:55:41.001Z,23.28
2018-07-13T07:58:10.056Z,23.24
2018-07-13T08:00:39.008Z,23.27
2018-07-13T08:03:08.390Z,23.46
2018-07-13T08:05:37.382Z,23.57
2018-07-13T08:08:06.264Z,23.39
2018-07-13T08:10:35.595Z,23.60
2018-07-13T08:13:04.444Z,23.78
2018-07-13T08:15:33.446Z,23.93
2018-07-13T08:18:02.963Z,23.76
2018-07-13T08:20:33.884Z,23.94
2018-07-13T08:23:06.205Z,24.00
2018-07-13T08:25:35.702Z,24.14
2018-07-13T08:28:05.541Z,24.19
2018-07-13T08:30:39.397Z,24.41
2018-07-13T08:33:08.278Z,24.35
2018-07-13T08:35:37.233Z,24.32
2018-07-13T08:38:06.762Z,24.26
2018-07-13T08:40:35.879Z,24.53
2018-07-13T08:43:05.156Z,24.70
2018-07-13T08:45:34.152Z,24.70
2018-07-13T08:48:03.062Z,24.83
2018-07-13T08:50:32.561Z,24.92
2018-07-13T08:53:01.674Z,24.88
2018-07-13T08:55:30.898Z,24.74
2018-07-13T08:58:00.146Z,24.69
2018-07-13T09:00:29.257Z,24.53
2018-07-13T09:02:58.126Z,24.57
2018-07-13T09:05:26.923Z,24.65
2018-07-13T09:07:56.472Z,24.66
2018-07-13T09:10:25.542Z,24.44
2018-07-13T09:12:54.367Z,24.25
2018-07-13T09:15:23.843Z,24.42
2018-07-13T09:17:52.630Z,24.77
2018-07-13T09:20:21.670Z,25.03
2018-07-13T09:22:50.826Z,25.07
2018-07-13T09:25:19.818Z,25.36
2018-07-13T09:27:48.746Z,25.40
2018-07-13T09:30:17.951Z,25.25
2018-07-13T09:32:46.835Z,25.08
2018-07-13T09:35:15.877Z,24.72
2018-07-13T09:37:45.111Z,24.69
2018-07-13T09:40:14.231Z,24.84
2018-07-13T09:42:42.969Z,25.21
2018-07-13T09:45:12.217Z,25.32
2018-07-13T09:47:41.157Z,25.32
2018-07-13T09:50:11.151Z,25.22
2018-07-13T09:52:40.410Z,25.48
2018-07-13T09:55:09.528Z,25.56
2018-07-13T09:57:38.366Z,25.65
2018-07-13T10:00:07.796Z,25.59
2018-07-13T10:02:36.817Z,25.69
2018-07-13T10:05:05.700Z,26.08
2018-07-13T10:07:35.298Z,25.98
2018-07-13T10:10:04.372Z,26.08
2018-07-13T10:12:33.365Z,26.31
2018-07-13T10:15:02.190Z,26.30
2018-07-13T10:17:31.031Z,26.06
2018-07-13T10:19:59.945Z,26.20
2018-07-13T10:22:29.801Z,26.11
2018-07-13T10:25:00.727Z,26.18
2018-07-13T10:27:33.787Z,26.01
2018-07-13T10:30:04.589Z,26.08
2018-07-13T10:32:33.760Z,26.04
2018-07-13T10:35:04.042Z,25.90
2018-07-13T10:37:33.102Z,26.53
2018-07-13T10:40:01.931Z,26.97
2018-07-13T10:42:30.629Z,27.20
2018-07-13T10:44:59.578Z,26.87
2018-07-13T10:47:28.601Z,27.31
2018-07-13T10:49:58.022Z,27.49
2018-07-13T10:52:27.101Z,27.41
2018-07-13T10:54:56.104Z,27.49
2018-07-13T10:57:25.176Z,27.60
2018-07-13T10:59:54.230Z,27.82
2018-07-13T11:02:23.177Z,27.92
2018-07-13T11:04:52.042Z,28.24
2018-07-13T11:07:20.807Z,28.47
2018-07-13T11:09:49.732Z,28.30
2018-07-13T11:12:18.573Z,28.06
2018-07-13T11:14:47.321Z,28.11
2018-07-13T11:17:16.297Z,28.12
2018-07-13T11:19:45.685Z,27.98
2018-07-13T11:22:14.461Z,27.90
2018-07-13T11:24:44.091Z,27.91
2018-07-13T11:27:13.122Z,27.55
2018-07-13T11:29:42.288Z,27.38
2018-07-13T11:32:11.552Z,27.20
2018-07-13T11:34:40.510Z,26.99
2018-07-13T11:37:09.615Z,26.21
2018-07-13T11:39:38.281Z,25.65
2018-07-13T11:42:07.213Z,25.14
2018-07-13T11:44:36.513Z,25.19
2018-07-13T11:47:05.478Z,25.89
2018-07-13T11:49:34.291Z,26.08
2018-07-13T11:52:02.999Z,25.96
2018-07-13T11:54:31.751Z,25.91
2018-07-13T11:57:01.054Z,25.81
2018-07-13T11:59:29.952Z,26.10
2018-07-13T12:01:58.835Z,26.22
2018-07-13T12:04:27.674Z,26.35
2018-07-13T12:06:56.607Z,26.68
2018-07-13T12:09:25.403Z,26.78
2018-07-13T12:11:54.728Z,27.09
2018-07-13T12:14:23.607Z,27.02
2018-07-13T12:16:52.497Z,26.79
2018-07-13T12:19:21.705Z,27.00
2018-07-13T12:21:50.736Z,27.58
2018-07-13T12:24:19.519Z,27.98
2018-07-13T12:26:48.576Z,27.82
2018-07-13T12:29:17.254Z,27.98
2018-07-13T12:31:46.358Z,27.88
2018-07-13T12:34:15.679Z,28.07
2018-07-13T12:36:44.987Z,28.01
2018-07-13T12:39:13.947Z,27.79
2018-07-13T12:41:43.167Z,27.34
2018-07-13T12:44:11.879Z,27.65
2018-07-13T12:46:40.770Z,27.96
2018-07-13T12:49:09.738Z,28.16
2018-07-13T12:51:38.846Z,28.13
2018-07-13T12:54:07.697Z,28.43
2018-07-13T12:56:36.823Z,28.62
2018-07-13T12:59:06.087Z,28.19
2018-07-13T13:01:34.985Z,28.31
2018-07-13T13:04:04.065Z,28.52
2018-07-13T13:06:33.082Z,28.77
2018-07-13T13:09:01.880Z,28.95
2018-07-13T13:11:30.758Z,29.21
2018-07-13T13:13:59.558Z,29.33
2018-07-13T13:16:28.453Z,29.30
2018-07-13T13:18:57.661Z,29.60
2018-07-13T13:21:26.504Z,29.68
2018-07-13T13:23:55.599Z,29.52
2018-07-13T13:26:24.759Z,29.55
2018-07-13T13:28:53.726Z,29.87
2018-07-13T13:31:22.978Z,29.78
2018-07-13T13:33:52.251Z,29.83
2018-07-13T13:36:21.303Z,30.33
2018-07-13T13:38:50.112Z,30.29
2018-07-13T13:41:19.330Z,29.39
2018-07-13T13:43:48.103Z,29.53
2018-07-13T13:46:16.822Z,29.11
2018-07-13T13:48:46.097Z,28.48
2018-07-13T13:51:15.055Z,28.43
2018-07-13T13:53:43.897Z,27.91
2018-07-13T13:56:13.078Z,27.31
2018-07-13T13:58:41.968Z,26.68
2018-07-13T14:01:10.745Z,26.56
2018-07-13T14:03:39.984Z,26.39
2018-07-13T14:06:09.037Z,26.29
2018-07-13T14:08:38.142Z,26.25
2018-07-13T14:11:07.661Z,26.11
2018-07-13T14:13:36.637Z,26.52
2018-07-13T14:16:05.377Z,26.48
2018-07-13T14:18:34.592Z,26.15
2018-07-13T14:21:03.610Z,26.04
2018-07-13T14:23:32.414Z,26.04
2018-07-13T14:26:01.834Z,25.63
2018-07-13T14:28:30.921Z,25.44
2018-07-13T14:30:59.772Z,25.47
2018-07-13T14:33:29.143Z,25.57
2018-07-13T14:35:58.045Z,25.93
2018-07-13T14:38:27.043Z,25.86
2018-07-13T14:40:56.772Z,26.46
2018-07-13T14:43:25.705Z,26.49
2018-07-13T14:45:54.585Z,26.30
2018-07-13T14:48:23.718Z,26.06
2018-07-13T14:50:52.466Z,26.15
2018-07-13T14:53:21.590Z,26.18
2018-07-13T14:55:50.550Z,26.37
2018-07-13T14:58:19.798Z,26.59
2018-07-13T15:00:48.807Z,26.47
2018-07-13T15:03:18.177Z,26.07
2018-07-13T15:05:47.251Z,26.31
2018-07-13T15:08:16.147Z,26.12
2018-07-13T15:10:45.795Z,25.91
2018-07-13T15:13:15.024Z,26.31
2018-07-13T15:15:43.993Z,26.49
2018-07-13T15:18:13.034Z,26.57
2018-07-13T15:20:42.343Z,26.13
2018-07-13T15:23:11.366Z,25.99
2018-07-13T15:25:40.612Z,25.94
2018-07-13T15:28:09.686Z,26.06
2018-07-13T15:30:39.095Z,26.05
2018-07-13T15:33:08.066Z,26.03
2018-07-13T15:35:36.687Z,25.84
2018-07-13T15:38:05.498Z,25.79
2018-07-13T15:40:34.698Z,25.83
2018-07-13T15:43:03.609Z,25.70
2018-07-13T15:45:32.522Z,25.67
2018-07-13T15:48:02.248Z,25.82
2018-07-13T15:50:31.235Z,26.29
2018-07-13T15:53:00.399Z,26.52
2018-07-13T15:55:34.084Z,26.50
2018-07-13T15:58:03.097Z,26.64
2018-07-13T16:00:31.908Z,26.70
2018-07-13T16:03:00.866Z,26.82
2018-07-13T16:05:30.212Z,27.05
2018-07-13T16:07:59.482Z,27.07
2018-07-13T16:10:28.742Z,27.15
2018-07-13T16:12:57.472Z,27.14
2018-07-13T16:15:26.470Z,27.01
2018-07-13T16:17:56.446Z,27.01
2018-07-13T16:20:25.318Z,26.95
2018-07-13T16:22:54.279Z,26.52
2018-07-13T16:25:23.491Z,26.27
2018-07-13T16:27:52.632Z,26.13
2018-07-13T16:30:21.382Z,26.09
2018-07-13T16:32:50.799Z,25.68
2018-07-13T16:35:19.753Z,25.60
2018-07-13T16:37:48.903Z,25.27
2018-07-13T16:40:18.185Z,25.14
2018-07-13T16:42:47.144Z,25.26
2018-07-13T16:45:16.032Z,25.11
2018-07-13T16:47:45.554Z,24.92
2018-07-13T16:50:14.482Z,25.11
2018-07-13T16:52:43.401Z,25.15
2018-07-13T16:55:12.443Z,25.16
2018-07-13T16:57:41.418Z,24.98
2018-07-13T17:00:10.127Z,24.88
2018-07-13T17:02:39.574Z,24.86
2018-07-13T17:05:08.394Z,24.72
2018-07-13T17:07:37.395Z,24.42
2018-07-13T17:10:06.196Z,24.41
2018-07-13T17:12:35.358Z,24.33
2018-07-13T17:15:04.092Z,24.18
2018-07-13T17:17:34.152Z,24.20
2018-07-13T17:20:02.907Z,24.16
2018-07-13T17:22:31.875Z,24.03
2018-07-13T17:25:01.868Z,23.93
2018-07-13T17:27:30.673Z,23.87
2018-07-13T17:29:59.550Z,23.94
2018-07-13T17:32:28.792Z,23.87
2018-07-13T17:34:59.002Z,23.63
2018-07-13T17:37:33.021Z,23.60
2018-07-13T17:40:02.294Z,23.66
2018-07-13T17:42:32.193Z,23.74
2018-07-13T17:45:01.288Z,23.89
2018-07-13T17:47:30.183Z,23.72
2018-07-13T17:49:59.054Z,23.71
2018-07-13T17:52:27.762Z,23.70
2018-07-13T17:54:56.770Z,23.64
2018-07-13T17:57:25.445Z,23.55
2018-07-13T17:59:56.463Z,23.43
2018-07-13T18:02:26.311Z,23.61
2018-07-13T18:04:58.400Z,23.47
2018-07-13T18:07:28.860Z,23.61
2018-07-13T18:10:02.674Z,23.51
2018-07-13T18:12:31.732Z,23.44
2018-07-13T18:15:01.384Z,23.46
2018-07-13T18:17:31.651Z,23.32
2018-07-13T18:20:01.757Z,23.36
2018-07-13T18:22:30.576Z,23.23
2018-07-13T18:24:59.786Z,23.28
2018-07-13T18:27:29.288Z,23.21
2018-07-13T18:29:58.875Z,23.34
2018-07-13T18:32:29.973Z,23.10
2018-07-13T18:34:59.035Z,23.10
2018-07-13T18:37:33.463Z,23.18
2018-07-13T18:40:02.412Z,23.18
2018-07-13T18:42:31.960Z,23.11
2018-07-13T18:45:01.954Z,22.98
2018-07-13T18:47:30.754Z,22.96
2018-07-13T18:50:00.071Z,22.90
2018-07-13T18:52:30.386Z,22.96
2018-07-13T18:54:59.446Z,22.96
2018-07-13T18:57:28.450Z,22.91
2018-07-13T18:59:57.893Z,22.96
2018-07-13T19:02:27.189Z,22.93
2018-07-13T19:04:56.388Z,22.95
2018-07-13T19:07:25.809Z,22.83
2018-07-13T19:09:55.050Z,22.99
2018-07-13T19:12:26.160Z,22.88
2018-07-13T19:14:57.770Z,22.71
2018-07-13T19:17:27.081Z,22.83
2018-07-13T19:19:56.046Z,22.82
2018-07-13T19:22:25.246Z,22.86
2018-07-13T19:24:54.881Z,22.55
2018-07-13T19:27:23.885Z,22.60
2018-07-13T19:29:52.606Z,22.47
2018-07-13T19:32:21.885Z,22.47
2018-07-13T19:34:50.761Z,22.38
2018-07-13T19:37:19.803Z,22.32
2018-07-13T19:39:49.203Z,22.32
2018-07-13T19:42:18.300Z,22.30
2018-07-13T19:44:47.430Z,22.39
2018-07-13T19:47:16.395Z,22.41
2018-07-13T19:49:45.406Z,22.25
2018-07-13T19:52:14.833Z,22.25
2018-07-13T19:54:44.241Z,22.35
2018-07-13T19:57:13.346Z,22.30
2018-07-13T19:59:42.933Z,22.32
2018-07-13T20:02:13.303Z,22.20
2018-07-13T20:04:42.262Z,22.20
2018-07-13T20:07:11.139Z,22.29
2018-07-13T20:09:40.665Z,22.29
2018-07-13T20:12:12.290Z,22.15
2018-07-13T20:14:41.699Z,21.99
2018-07-13T20:17:11.106Z,21.79
2018-07-13T20:19:39.941Z,21.74
2018-07-13T20:22:09.407Z,21.63
2018-07-13T20:24:38.401Z,21.62
2018-07-13T20:27:07.485Z,21.65
2018-07-13T20:29:37.814Z,21.77
2018-07-13T20:32:07.018Z,21.82
2018-07-13T20:34:36.175Z,21.70
2018-07-13T20:37:05.465Z,21.70
2018-07-13T20:39:34.548Z,21.73
2018-07-13T20:42:03.242Z,21.74
2018-07-13T20:44:32.325Z,21.71
2018-07-13T20:47:01.048Z,21.69
2018-07-13T20:49:29.756Z,21.55
2018-07-13T20:51:58.981Z,21.48
2018-07-13T20:54:27.950Z,21.55
2018-07-13T20:56:56.871Z,21.56
2018-07-13T20:59:25.541Z,21.40
2018-07-13T21:01:54.514Z,21.35
2018-07-13T21:04:24.383Z,21.41
2018-07-13T21:06:53.659Z,21.32
2018-07-13T21:09:22.819Z,21.13
2018-07-13T21:11:51.831Z,21.22
2018-07-13T21:14:20.798Z,21.21
2018-07-13T21:16:49.818Z,21.05
2018-07-13T21:19:18.525Z,20.95
2018-07-13T21:21:47.706Z,20.98
2018-07-13T21:24:16.513Z,21.00
2018-07-13T21:26:45.458Z,20.95
2018-07-13T21:29:14.474Z,20.94
2018-07-13T21:31:43.394Z,20.96
2018-07-13T21:34:12.392Z,20.93
2018-07-13T21:36:41.166Z,20.88
2018-07-13T21:39:09.864Z,20.79
2018-07-13T21:41:38.971Z,20.79
2018-07-13T21:44:08.240Z,20.73
2018-07-13T21:46:37.550Z,20.68
2018-07-13T21:49:06.572Z,20.69
2018-07-13T21:51:35.984Z,20.68
2018-07-13T21:54:05.312Z,20.65
2018-07-13T21:56:34.272Z,20.52
2018-07-13T21:59:03.880Z,20.55
2018-07-13T22:01:32.692Z,20.62
2018-07-13T22:04:01.626Z,20.54
2018-07-13T22:06:30.914Z,20.49
2018-07-13T22:08:59.937Z,20.51
2018-07-13T22:11:29.134Z,20.42
2018-07-13T22:13:58.269Z,20.39
2018-07-13T22:16:29.675Z,20.31
2018-07-13T22:18:58.515Z,20.38
2018-07-13T22:21:27.419Z,20.38
2018-07-13T22:23:56.678Z,20.27
2018-07-13T22:26:29.366Z,20.26
2018-07-13T22:28:59.899Z,20.25
2018-07-13T22:31:29.169Z,20.25
2018-07-13T22:33:58.599Z,20.27
2018-07-13T22:36:29.295Z,20.13
2018-07-13T22:38:58.283Z,20.23
2018-07-13T22:41:27.043Z,20.18
2018-07-13T22:43:56.218Z,20.17
2018-07-13T22:46:25.506Z,20.17
2018-07-13T22:48:54.671Z,20.16
2018-07-13T22:51:24.454Z,20.13
2018-07-13T22:53:53.510Z,20.07
2018-07-13T22:56:23.430Z,20.08
2018-07-13T22:58:53.466Z,20.03
2018-07-13T23:01:23.038Z,20.18
2018-07-13T23:03:52.186Z,20.12
2018-07-13T23:06:21.287Z,20.13
2018-07-13T23:08:50.221Z,20.13
2018-07-13T23:11:20.197Z,20.05
2018-07-13T23:13:49.780Z,20.10
2018-07-13T23:16:18.555Z,19.91
2018-07-13T23:18:47.699Z,19.89
2018-07-13T23:21:20.494Z,19.84
2018-07-13T23:23:49.577Z,19.93
2018-07-13T23:26:20.874Z,20.00
2018-07-13T23:28:49.919Z,20.03
2018-07-13T23:31:18.775Z,19.90
2018-07-13T23:33:47.874Z,19.99
2018-07-13T23:36:21.772Z,20.02
2018-07-13T23:38:50.675Z,19.85
2018-07-13T23:41:20.209Z,19.87
2018-07-13T23:43:49.150Z,19.92
2018-07-13T23:46:18.483Z,19.70
2018-07-13T23:48:48.069Z,19.83
2018-07-13T23:51:17.392Z,19.78
2018-07-13T23:53:47.025Z,19.81
2018-07-13T23:56:15.843Z,19.78
2018-07-13T23:58:44.864Z,19.76
